createdAt,value
2022-08-23T00:03:02.876Z,16.10
2022-08-23T00:07:10.197Z,16.07
2022-08-23T00:11:33.197Z,16.01
2022-08-23T00:15:34.989Z,15.89
2022-08-23T00:19:37.206Z,15.88
2022-08-23T00:23:39.306Z,15.78
2022-08-23T00:27:41.168Z,15.72
2022-08-23T00:31:42.603Z,15.71
2022-08-23T00:35:44.047Z,15.63
2022-08-23T00:39:46.203Z,15.59
2022-08-23T00:44:06.939Z,15.57
2022-08-23T00:48:08.726Z,15.52
2022-08-23T00:52:10.149Z,15.51
2022-08-23T00:56:15.602Z,15.50
2022-08-23T01:00:17.746Z,15.46
2022-08-23T01:04:19.881Z,15.45
2022-08-23T01:08:25.711Z,15.40
2022-08-23T01:12:40.729Z,15.34
2022-08-23T01:17:02.048Z,15.34
2022-08-23T01:21:26.567Z,15.31
2022-08-23T01:25:30.931Z,15.31
2022-08-23T01:29:33.061Z,15.27
2022-08-23T01:33:36.969Z,15.17
2022-08-23T01:37:38.693Z,15.05
2022-08-23T01:41:40.901Z,14.95
2022-08-23T01:45:43.421Z,14.95
2022-08-23T01:49:44.839Z,14.96
2022-08-23T01:53:46.696Z,14.95
2022-08-23T01:57:52.152Z,14.90
2022-08-23T02:01:54.128Z,14.82
2022-08-23T02:05:57.770Z,14.70
2022-08-23T02:09:59.185Z,14.65
2022-08-23T02:14:03.446Z,14.61
2022-08-23T02:18:04.900Z,14.60
2022-08-23T02:22:08.242Z,14.60
2022-08-23T02:26:09.753Z,14.59
2022-08-23T02:30:11.717Z,14.57
2022-08-23T02:34:15.636Z,14.55
2022-08-23T02:38:18.823Z,14.46
2022-08-23T02:42:20.197Z,14.43
2022-08-23T02:46:21.875Z,14.44
2022-08-23T02:50:23.533Z,14.45
2022-08-23T02:54:25.472Z,14.37
2022-08-23T02:58:27.257Z,14.32
2022-08-23T03:02:28.810Z,14.30
2022-08-23T03:06:30.706Z,14.32
2022-08-23T03:10:32.317Z,14.32
2022-08-23T03:14:33.793Z,14.35
2022-08-23T03:18:39.908Z,14.36
2022-08-23T03:22:41.821Z,14.35
2022-08-23T03:26:56.252Z,14.30
2022-08-23T03:30:57.712Z,14.28
2022-08-23T03:34:59.778Z,14.15
2022-08-23T03:39:01.433Z,14.12
2022-08-23T03:43:03.979Z,14.12
2022-08-23T03:47:08.714Z,14.09
2022-08-23T03:51:10.243Z,14.01
2022-08-23T03:55:11.744Z,14.02
2022-08-23T03:59:13.237Z,14.08
2022-08-23T04:03:14.993Z,14.10
2022-08-23T04:07:20.938Z,14.13
2022-08-23T04:11:23.866Z,14.18
2022-08-23T04:15:25.900Z,14.25
2022-08-23T04:19:27.982Z,14.35
2022-08-23T04:23:31.397Z,14.35
2022-08-23T04:27:32.957Z,14.41
2022-08-23T04:31:35.889Z,14.40
2022-08-23T04:35:41.346Z,14.39
2022-08-23T04:40:01.581Z,14.30
2022-08-23T04:44:03.746Z,14.30
2022-08-23T04:48:05.594Z,14.24
2022-08-23T04:52:07.289Z,14.21
2022-08-23T04:56:09.422Z,14.17
2022-08-23T05:00:13.168Z,14.19
2022-08-23T05:04:16.341Z,14.23
2022-08-23T05:08:18.182Z,14.23
2022-08-23T05:12:19.830Z,14.19
2022-08-23T05:16:25.573Z,14.22
2022-08-23T05:20:28.030Z,14.28
2022-08-23T05:24:29.458Z,14.43
2022-08-23T05:28:34.585Z,14.55
2022-08-23T05:32:36.010Z,14.70
2022-08-23T05:36:37.724Z,14.85
2022-08-23T05:40:40.378Z,15.00
2022-08-23T05:44:43.419Z,15.23
2022-08-23T05:48:48.001Z,15.47
2022-08-23T05:52:51.209Z,16.41
2022-08-23T05:56:53.018Z,17.27
2022-08-23T06:00:55.394Z,17.70
2022-08-23T06:04:57.623Z,17.91
2022-08-23T06:08:59.091Z,18.14
2022-08-23T06:13:03.386Z,18.37
2022-08-23T06:17:05.613Z,18.64
2022-08-23T06:21:10.304Z,18.95
2022-08-23T06:25:11.733Z,19.26
2022-08-23T06:29:16.356Z,19.62
2022-08-23T06:33:18.110Z,19.95
2022-08-23T06:37:19.576Z,20.36
2022-08-23T06:41:22.685Z,20.80
2022-08-23T06:45:33.743Z,21.15
2022-08-23T06:49:37.258Z,21.30
2022-08-23T06:53:39.210Z,21.58
2022-08-23T06:57:41.154Z,21.92
2022-08-23T07:01:46.815Z,22.25
2022-08-23T07:05:48.695Z,22.57
2022-08-23T07:09:50.267Z,22.84
2022-08-23T07:13:52.889Z,23.10
2022-08-23T07:17:54.465Z,23.39
2022-08-23T07:21:58.142Z,23.61
2022-08-23T07:26:07.710Z,23.70
2022-08-23T07:30:09.792Z,24.00
2022-08-23T07:34:11.838Z,24.31
2022-08-23T07:38:13.390Z,24.56
2022-08-23T07:42:23.430Z,24.86
2022-08-23T07:46:26.826Z,25.13
2022-08-23T07:50:30.536Z,25.33
2022-08-23T07:54:32.900Z,25.60
2022-08-23T07:58:34.496Z,25.85
2022-08-23T08:02:36.263Z,26.16
2022-08-23T08:06:43.964Z,26.51
2022-08-23T08:10:45.398Z,26.77
2022-08-23T08:14:48.555Z,27.00
2022-08-23T08:18:51.169Z,27.21
2022-08-23T08:22:58.994Z,27.41
2022-08-23T08:27:01.875Z,27.33
2022-08-23T08:31:04.161Z,27.41
2022-08-23T08:35:06.878Z,27.57
2022-08-23T08:39:16.937Z,27.84
2022-08-23T08:43:34.558Z,28.07
2022-08-23T08:47:57.221Z,28.43
2022-08-23T08:52:09.724Z,28.44
2022-08-23T08:56:32.978Z,28.25
2022-08-23T09:00:38.908Z,28.36
2022-08-23T09:04:40.502Z,28.36
2022-08-23T09:08:56.053Z,28.63
2022-08-23T09:13:09.692Z,28.67
2022-08-23T09:17:39.327Z,28.66
2022-08-23T09:21:49.463Z,28.87
2022-08-23T09:25:53.599Z,29.10
2022-08-23T09:29:57.999Z,29.33
2022-08-23T09:33:59.533Z,29.55
2022-08-23T09:38:19.946Z,29.74
2022-08-23T09:42:32.790Z,29.79
2022-08-23T09:46:38.999Z,29.84
2022-08-23T09:51:06.208Z,29.81
2022-08-23T09:55:27.581Z,29.88
2022-08-23T09:59:52.116Z,29.91
2022-08-23T10:04:10.761Z,29.86
2022-08-23T10:08:22.498Z,30.01
2022-08-23T10:12:25.572Z,30.24
2022-08-23T10:16:46.945Z,30.36
2022-08-23T10:20:57.392Z,30.47
2022-08-23T10:25:06.638Z,30.61
2022-08-23T10:29:38.957Z,30.59
2022-08-23T10:33:40.498Z,30.72
2022-08-23T10:37:51.453Z,30.80
2022-08-23T10:42:05.661Z,31.02
2022-08-23T10:46:08.293Z,31.01
2022-08-23T10:50:20.023Z,31.22
2022-08-23T10:54:35.722Z,31.40
2022-08-23T10:58:48.137Z,31.55
2022-08-23T11:03:04.595Z,31.47
2022-08-23T11:07:25.861Z,31.62
2022-08-23T11:11:43.394Z,31.58
2022-08-23T11:15:55.298Z,30.81
2022-08-23T11:20:00.619Z,30.21
2022-08-23T11:24:02.420Z,29.93
2022-08-23T11:28:25.436Z,30.37
2022-08-23T11:32:38.723Z,30.85
2022-08-23T11:36:40.277Z,31.09
2022-08-23T11:40:50.934Z,31.03
2022-08-23T11:44:53.131Z,31.17
2022-08-23T11:49:13.630Z,30.91
2022-08-23T11:53:34.376Z,30.39
2022-08-23T11:58:05.793Z,30.45
2022-08-23T12:02:40.596Z,30.70
2022-08-23T12:06:42.067Z,30.67
2022-08-23T12:10:43.854Z,30.86
2022-08-23T12:14:45.296Z,30.99
2022-08-23T12:18:49.772Z,30.93
2022-08-23T12:23:15.391Z,31.20
2022-08-23T12:27:42.762Z,31.44
2022-08-23T12:31:44.360Z,31.68
2022-08-23T12:35:54.901Z,31.72
2022-08-23T12:39:59.561Z,31.69
2022-08-23T12:44:10.061Z,31.44
2022-08-23T12:48:14.578Z,31.09
2022-08-23T12:52:16.224Z,30.76
2022-08-23T12:56:32.166Z,30.68
2022-08-23T13:00:43.465Z,30.60
2022-08-23T13:04:44.884Z,30.37
2022-08-23T13:09:06.791Z,30.62
2022-08-23T13:13:12.449Z,30.90
2022-08-23T13:17:30.794Z,30.70
2022-08-23T13:21:40.114Z,30.26
2022-08-23T13:25:42.958Z,30.03
2022-08-23T13:29:53.531Z,29.94
2022-08-23T13:33:55.172Z,29.80
2022-08-23T13:38:07.562Z,29.60
2022-08-23T13:42:11.069Z,29.63
2022-08-23T13:46:22.909Z,29.66
2022-08-23T13:50:34.564Z,29.98
2022-08-23T13:54:38.168Z,30.50
2022-08-23T13:58:39.697Z,30.73
2022-08-23T14:02:41.817Z,30.60
2022-08-23T14:06:43.236Z,30.50
2022-08-23T14:10:50.477Z,30.37
2022-08-23T14:14:52.197Z,30.28
2022-08-23T14:23:15.302Z,30.22
2022-08-23T14:27:16.797Z,30.17
2022-08-23T14:31:20.282Z,30.16
2022-08-23T14:35:24.237Z,30.18
2022-08-23T14:39:25.750Z,30.19
2022-08-23T14:43:27.912Z,30.12
2022-08-23T14:47:29.398Z,30.02
2022-08-23T14:51:34.870Z,30.05
2022-08-23T14:55:37.058Z,30.25
2022-08-23T14:59:38.601Z,30.45
2022-08-23T15:03:42.287Z,30.85
2022-08-23T15:07:44.046Z,31.09
2022-08-23T15:16:10.074Z,31.68
2022-08-23T15:20:12.586Z,31.93
2022-08-23T15:24:14.074Z,32.08
2022-08-23T15:28:18.150Z,32.24
2022-08-23T15:32:22.558Z,32.32
2022-08-23T15:36:24.405Z,32.29
2022-08-23T15:40:26.079Z,32.37
2022-08-23T15:44:27.614Z,32.49
2022-08-23T15:48:33.951Z,32.51
2022-08-23T15:52:35.394Z,32.64
2022-08-23T15:56:43.466Z,32.65
2022-08-23T16:00:45.756Z,32.76
2022-08-23T16:04:47.617Z,32.82
2022-08-23T16:08:52.399Z,32.42
2022-08-23T16:12:53.810Z,31.99
2022-08-23T16:16:55.424Z,31.75
2022-08-23T16:20:56.915Z,31.81
2022-08-23T16:25:00.041Z,31.47
2022-08-23T16:29:01.636Z,31.04
2022-08-23T16:33:04.024Z,30.57
2022-08-23T16:37:07.074Z,30.23
2022-08-23T16:41:08.563Z,29.87
2022-08-23T16:45:10.732Z,29.54
2022-08-23T16:49:15.754Z,29.23
2022-08-23T16:53:17.623Z,28.93
2022-08-23T16:57:19.112Z,28.61
2022-08-23T17:01:20.653Z,28.35
2022-08-23T17:05:22.298Z,28.08
2022-08-23T17:09:26.317Z,27.90
2022-08-23T17:13:27.833Z,27.66
2022-08-23T17:17:31.027Z,27.40
2022-08-23T17:21:32.686Z,27.16
2022-08-23T17:25:35.490Z,26.93
2022-08-23T17:29:37.612Z,26.74
2022-08-23T17:33:40.906Z,26.55
2022-08-23T17:37:43.021Z,26.34
2022-08-23T17:41:45.664Z,26.13
2022-08-23T17:45:50.371Z,25.90
2022-08-23T17:49:52.357Z,25.67
2022-08-23T17:53:53.752Z,25.39
2022-08-23T17:57:58.085Z,25.17
2022-08-23T18:02:06.651Z,24.96
2022-08-23T18:06:16.756Z,24.73
2022-08-23T18:10:18.887Z,24.50
2022-08-23T18:14:20.576Z,24.24
2022-08-23T18:18:23.373Z,24.07
2022-08-23T18:22:25.322Z,23.86
2022-08-23T18:26:46.497Z,23.70
2022-08-23T18:30:57.552Z,23.45
2022-08-23T18:34:58.980Z,23.23
2022-08-23T18:39:00.411Z,23.06
2022-08-23T18:43:02.017Z,22.92
2022-08-23T18:47:03.713Z,22.72
2022-08-23T18:51:06.026Z,22.57
2022-08-23T18:55:20.093Z,22.43
2022-08-23T18:59:21.686Z,22.28
2022-08-23T19:03:23.193Z,22.12
2022-08-23T19:07:24.573Z,22.01
2022-08-23T19:11:26.143Z,21.89
2022-08-23T19:15:32.016Z,21.74
2022-08-23T19:19:34.201Z,21.59
2022-08-23T19:23:35.765Z,21.47
2022-08-23T19:27:37.360Z,21.34
2022-08-23T19:31:43.229Z,21.26
2022-08-23T19:35:45.488Z,21.13
2022-08-23T19:39:47.014Z,21.06
2022-08-23T19:43:49.499Z,20.97
2022-08-23T19:47:50.962Z,20.84
2022-08-23T19:51:55.661Z,20.71
2022-08-23T19:56:01.810Z,20.61
2022-08-23T20:00:12.765Z,20.48
2022-08-23T20:04:17.616Z,20.40
2022-08-23T20:08:19.506Z,20.33
2022-08-23T20:12:21.190Z,20.22
2022-08-23T20:16:23.690Z,20.12
2022-08-23T20:20:25.136Z,20.04
2022-08-23T20:24:48.734Z,19.99
2022-08-23T20:28:55.147Z,19.90
2022-08-23T20:33:02.142Z,19.82
2022-08-23T20:37:05.088Z,19.73
2022-08-23T20:41:07.424Z,19.66
2022-08-23T20:45:09.238Z,19.58
2022-08-23T20:49:11.605Z,19.53
2022-08-23T20:53:13.485Z,19.48
2022-08-23T20:57:14.924Z,19.41
2022-08-23T21:01:16.493Z,19.35
2022-08-23T21:05:18.141Z,19.30
2022-08-23T21:09:23.286Z,19.26
2022-08-23T21:13:27.732Z,19.15
2022-08-23T21:17:29.059Z,19.09
2022-08-23T21:21:30.645Z,19.01
2022-08-23T21:25:32.039Z,18.92
2022-08-23T21:29:33.460Z,18.83
2022-08-23T21:33:39.806Z,18.76
2022-08-23T21:37:41.828Z,18.77
2022-08-23T21:41:44.820Z,18.79
2022-08-23T21:45:46.249Z,18.74
2022-08-23T21:49:47.677Z,18.61
2022-08-23T21:53:49.652Z,18.56
2022-08-23T21:57:51.203Z,18.48
2022-08-23T22:01:52.619Z,18.45
2022-08-23T22:05:54.251Z,18.39
2022-08-23T22:09:55.737Z,18.32
2022-08-23T22:13:57.535Z,18.20
2022-08-23T22:18:03.781Z,18.17
2022-08-23T22:22:05.429Z,18.08
2022-08-23T22:26:07.300Z,18.04
2022-08-23T22:30:10.541Z,17.97
2022-08-23T22:34:12.687Z,17.91
2022-08-23T22:38:14.964Z,17.82
2022-08-23T22:42:16.689Z,17.70
2022-08-23T22:46:18.213Z,17.63
2022-08-23T22:50:19.785Z,17.58
2022-08-23T22:54:21.297Z,17.51
2022-08-23T22:58:22.736Z,17.49
2022-08-23T23:02:24.185Z,17.45
2022-08-23T23:06:29.046Z,17.43
2022-08-23T23:10:30.581Z,17.40
2022-08-23T23:14:32.205Z,17.37
2022-08-23T23:18:34.877Z,17.30
2022-08-23T23:22:36.422Z,17.26
2022-08-23T23:26:37.952Z,17.21
2022-08-23T23:30:43.211Z,17.17
2022-08-23T23:34:44.657Z,17.11
2022-08-23T23:38:47.136Z,17.02
2022-08-23T23:42:48.594Z,16.97
2022-08-23T23:46:50.055Z,16.96
2022-08-23T23:50:51.493Z,16.96
2022-08-23T23:54:53.022Z,16.94
2022-08-23T23:58:56.774Z,16.92
